Terminal Aerodrome Forecast
Issued by NWS Knoxville/Tri Cities, TN

Home | Current Version | Previous Version | Text Only | Print | Product List | Glossary On
Versions: 1 2 3 4 5 6 7 8 9 10 11 12 13 14 15 16 17 18 19 20 21 22 23 24 25 26
000
FTUS44 KMRX 231720
TAFCHA
TAF
KCHA 231720Z 2318/2418 19004KT P6SM BKN040
     FM232100 18004KT P6SM BKN250
     FM240300 18003KT 6SM BR SCT250
     FM240900 17003KT 4SM BR BKN050
     FM241600 18006KT P6SM BKN050=

USA.gov is the U.S. government's official web portal to all federal, state and local government web resources and services.